| time (UTC) | temp C | wind direction | speed KPH | gust KPH | rain 1hr cm | rain 24hr cm | rain mn cm | humidity % | barometer mb |
| 20260509234614 | 30 | 157 | 6.4 | 9.7 | 0.00 | 0.00 | 0.00 | 57 | 1043.0 |
| 20260509234113 | 30 | 180 | 3.2 | 8.0 | 0.00 | 0.00 | 0.00 | 56 | 1042.9 |
| 20260509233610 | 30 | 155 | 4.8 | 14.5 | 0.00 | 0.00 | 0.00 | 57 | 1042.9 |
| 20260509233107 | 30 | 169 | 8.0 | 9.7 | 0.00 | 0.00 | 0.00 | 54 | 1042.8 |
| 20260509232603 | 30 | 141 | 4.8 | 11.3 | 0.00 | 0.00 | 0.00 | 55 | 1043.0 |
| 20260509232100 | 31 | 142 | 6.4 | 11.3 | 0.00 | 0.00 | 0.00 | 54 | 1042.6 |
| 20260509231556 | 31 | 171 | 8.0 | 12.9 | 0.00 | 0.00 | 0.00 | 54 | 1042.8 |
| 20260509231054 | 30 | 156 | 11.3 | 16.1 | 0.00 | 0.00 | 0.00 | 54 | 1042.8 |
| 20260509230551 | 30 | 138 | 8.0 | 19.3 | 0.00 | 0.00 | 0.00 | 54 | 1042.8 |
| 20260509230048 | 30 | 150 | 6.4 | 20.9 | 0.00 | 0.00 | 0.00 | 53 | 1042.7 |
| 20260509225549 | 31 | 140 | 8.0 | 11.3 | 0.00 | 0.00 | 0.00 | 51 | 1042.8 |
| 20260509225044 | 31 | 141 | 6.4 | 11.3 | 0.00 | 0.00 | 0.00 | 50 | 1042.7 |
| 20260509224540 | 31 | 162 | 6.4 | 12.9 | 0.00 | 0.00 | 0.00 | 50 | 1042.6 |
| 20260509224037 | 31 | 149 | 4.8 | 11.3 | 0.00 | 0.00 | 0.00 | 50 | 1043.1 |
| 20260509223534 | 31 | 143 | 6.4 | 17.7 | 0.00 | 0.00 | 0.00 | 49 | 1042.8 |
| 20260509223032 | 31 | 146 | 6.4 | 14.5 | 0.00 | 0.00 | 0.00 | 49 | 1042.9 |
| 20260509222528 | 31 | 159 | 6.4 | 14.5 | 0.00 | 0.00 | 0.00 | 50 | 1043.0 |
| 20260509222023 | 32 | 176 | 9.7 | 11.3 | 0.00 | 0.00 | 0.00 | 51 | 1042.8 |
| 20260509221520 | 33 | 187 | 1.6 | 6.4 | 0.00 | 0.00 | 0.00 | 49 | 1042.8 |
| 20260509221016 | 33 | 319 | 3.2 | 8.0 | 0.00 | 0.00 | 0.00 | 50 | 1042.7 |
| 20260509220512 | 32 | 314 | 8.0 | 8.0 | 0.00 | 0.00 | 0.00 | 50 | 1042.9 |
| 20260509220008 | 32 | 150 | 0.0 | 9.7 | 0.00 | 0.00 | 0.00 | 51 | 1042.7 |
| 20260509215503 | 32 | 243 | 0.0 | 6.4 | 0.00 | 0.00 | 0.00 | 53 | 1042.9 |
| 20260509215001 | 31 | 165 | 1.6 | 9.7 | 0.00 | 0.00 | 0.00 | 54 | 1042.8 |
| 20260509214459 | 31 | 137 | 0.0 | 8.0 | 0.00 | 0.00 | 0.00 | 54 | 1043.0 |
| 20260509213955 | 31 | 146 | 3.2 | 11.3 | 0.00 | 0.00 | 0.00 | 54 | 1043.1 |
| 20260509213451 | 31 | 154 | 3.2 | 9.7 | 0.00 | 0.00 | 0.00 | 54 | 1043.1 |
| 20260509212948 | 31 | 79 | 4.8 | 11.3 | 0.00 | 0.00 | 0.00 | 53 | 1043.1 |
| 20260509212445 | 31 | 131 | 8.0 | 19.3 | 0.00 | 0.00 | 0.00 | 55 | 1043.2 |
| 20260509211941 | 32 | 131 | 8.0 | 8.0 | 0.00 | 0.00 | 0.00 | 54 | 1043.1 |
| 20260509211437 | 31 | 142 | 4.8 | 9.7 | 0.00 | 0.00 | 0.00 | 57 | 1043.3 |
| 20260509210934 | 31 | 140 | 8.0 | 12.9 | 0.00 | 0.00 | 0.00 | 56 | 1043.3 |
| 20260509210431 | 31 | 161 | 0.0 | 17.7 | 0.00 | 0.00 | 0.00 | 55 | 1043.7 |
| 20260509205926 | 31 | 34 | 3.2 | 14.5 | 0.00 | 0.00 | 0.00 | 55 | 1043.5 |
| 20260509205421 | 30 | 133 | 9.7 | 14.5 | 0.00 | 0.00 | 0.00 | 55 | 1043.4 |
| 20260509204917 | 31 | 103 | 12.9 | 19.3 | 0.00 | 0.00 | 0.00 | 53 | 1043.9 |
| 20260509204414 | 30 | 205 | 4.8 | 14.5 | 0.00 | 0.00 | 0.00 | 51 | 1043.9 |
| 20260509203910 | 30 | 119 | 8.0 | 19.3 | 0.00 | 0.00 | 0.00 | 52 | 1043.7 |
| 20260509203406 | 30 | 142 | 11.3 | 22.5 | 0.00 | 0.00 | 0.00 | 53 | 1043.9 |
| 20260509202904 | 30 | 136 | 14.5 | 17.7 | 0.00 | 0.00 | 0.00 | 54 | 1044.0 |
| 20260509202359 | 30 | 129 | 14.5 | 20.9 | 0.00 | 0.00 | 0.00 | 52 | 1044.1 |
| 20260509201854 | 29 | 148 | 9.7 | 25.7 | 0.00 | 0.00 | 0.00 | 51 | 1044.2 |
| 20260509201350 | 29 | 146 | 12.9 | 25.7 | 0.00 | 0.00 | 0.00 | 51 | 1044.3 |
| 20260509200847 | 29 | 119 | 11.3 | 27.4 | 0.00 | 0.00 | 0.00 | 56 | 1044.6 |
| 20260509200342 | 30 | 141 | 14.5 | 40.2 | 0.00 | 0.00 | 0.00 | 57 | 1044.7 |
| 20260509195839 | 31 | 339 | 3.2 | 8.0 | 0.00 | 0.00 | 0.00 | 58 | 1044.7 |
| 20260509195334 | 32 | 117 | 4.8 | 8.0 | 0.00 | 0.00 | 0.00 | 59 | 1044.6 |
| 20260509194833 | 31 | 194 | 1.6 | 6.4 | 0.00 | 0.00 | 0.00 | 59 | 1044.1 |
| 20260509194330 | 30 | 233 | 8.0 | 20.9 | 0.00 | 0.00 | 0.00 | 62 | 1044.4 |
| 20260509193827 | 32 | 317 | 9.7 | 11.3 | 0.00 | 0.00 | 0.00 | 59 | 1044.3 |
| 20260509193321 | 31 | 97 | 0.0 | 8.0 | 0.00 | 0.00 | 0.00 | 59 | 1044.6 |
| 20260509192817 | 30 | 97 | 6.4 | 8.0 | 0.00 | 0.00 | 0.00 | 61 | 1044.3 |
| 20260509192313 | 31 | 16 | 14.5 | 17.7 | 0.00 | 0.00 | 0.00 | 61 | 1044.3 |
| 20260509191809 | 30 | 20 | 9.7 | 16.1 | 0.00 | 0.00 | 0.00 | 62 | 1044.6 |
| 20260509191305 | 30 | 62 | 6.4 | 16.1 | 0.00 | 0.00 | 0.00 | 63 | 1044.4 |
| 20260509190800 | 30 | 10 | 0.0 | 6.4 | 0.00 | 0.00 | 0.00 | 64 | 1044.4 |
| 20260509190258 | 30 | 26 | 9.7 | 16.1 | 0.00 | 0.00 | 0.00 | 62 | 1044.7 |
| 20260509185755 | 30 | 15 | 17.7 | 17.7 | 0.00 | 0.00 | 0.00 | 63 | 1044.7 |
| 20260509185251 | 30 | 24 | 6.4 | 11.3 | 0.00 | 0.00 | 0.00 | 64 | 1045.0 |
| 20260509184749 | 30 | 16 | 8.0 | 14.5 | 0.00 | 0.00 | 0.00 | 65 | 1044.9 |
| 20260509184246 | 30 | 22 | 4.8 | 9.7 | 0.00 | 0.00 | 0.00 | 64 | 1045.3 |
| 20260509183743 | 30 | 40 | 8.0 | 11.3 | 0.00 | 0.00 | 0.00 | 63 | 1045.3 |
| 20260509183238 | 30 | 342 | 8.0 | 8.0 | 0.00 | 0.00 | 0.00 | 63 | 1045.1 |
| 20260509182733 | 30 | 285 | 4.8 | 4.8 | 0.00 | 0.00 | 0.00 | 63 | 1045.2 |
| 20260509182231 | 28 | 8 | 4.8 | 11.3 | 0.00 | 0.00 | 0.00 | 64 | 1045.5 |
| 20260509181729 | 29 | 322 | 4.8 | 8.0 | 0.00 | 0.00 | 0.00 | 62 | 1045.3 |
| 20260509181226 | 29 | 12 | 3.2 | 11.3 | 0.00 | 0.00 | 0.00 | 65 | 1045.5 |
| 20260509180723 | 29 | 286 | 9.7 | 14.5 | 0.00 | 0.00 | 0.00 | 64 | 1045.7 |
| 20260509180219 | 29 | 340 | 4.8 | 12.9 | 0.00 | 0.00 | 0.00 | 66 | 1045.7 |
| 20260509175716 | 30 | 220 | 4.8 | 11.3 | 0.00 | 0.00 | 0.00 | 66 | 1045.8 |
| 20260509175212 | 30 | 326 | 11.3 | 11.3 | 0.00 | 0.00 | 0.00 | 65 | 1045.7 |
| 20260509174708 | 28 | 292 | 4.8 | 6.4 | 0.00 | 0.00 | 0.00 | 69 | 1045.5 |
| 20260509174203 | 28 | 309 | 8.0 | 12.9 | 0.00 | 0.00 | 0.00 | 71 | 1045.7 |
| 20260509173700 | 28 | 278 | 3.2 | 8.0 | 0.00 | 0.00 | 0.00 | 72 | 1045.5 |
| 20260509173155 | 28 | 236 | 3.2 | 6.4 | 0.00 | 0.00 | 0.00 | 72 | 1045.8 |
| 20260509172651 | 27 | 258 | 6.4 | 6.4 | 0.00 | 0.00 | 0.00 | 74 | 1046.1 |
| 20260509172148 | 27 | 235 | 6.4 | 8.0 | 0.00 | 0.00 | 0.00 | 76 | 1046.0 |
| 20260509171643 | 27 | 288 | 6.4 | 12.9 | 0.00 | 0.00 | 0.00 | 74 | 1046.3 |
| 20260509171140 | 28 | 161 | 0.0 | 8.0 | 0.00 | 0.00 | 0.00 | 72 | 1046.5 |
| 20260509170637 | 28 | 230 | 9.7 | 12.9 | 0.00 | 0.00 | 0.00 | 74 | 1046.3 |
| 20260509170133 | 28 | 13 | 4.8 | 6.4 | 0.00 | 0.00 | 0.00 | 74 | 1046.4 |
| 20260509165631 | 27 | 228 | 6.4 | 11.3 | 0.00 | 0.00 | 0.00 | 76 | 1046.4 |
| 20260509165127 | 28 | 299 | 3.2 | 9.7 | 0.00 | 0.00 | 0.00 | 75 | 1046.3 |
| 20260509164624 | 27 | 251 | 3.2 | 19.3 | 0.00 | 0.00 | 0.00 | 77 | 1046.1 |
| 20260509164119 | 27 | 315 | 12.9 | 16.1 | 0.00 | 0.00 | 0.00 | 78 | 1046.2 |
| 20260509163617 | 27 | 287 | 12.9 | 14.5 | 0.00 | 0.00 | 0.00 | 77 | 1046.5 |
| 20260509163112 | 26 | 308 | 8.0 | 17.7 | 0.00 | 0.00 | 0.00 | 80 | 1046.3 |
| 20260509162610 | 26 | 5 | 3.2 | 9.7 | 0.00 | 0.00 | 0.00 | 78 | 1046.3 |
| 20260509162105 | 26 | 270 | 6.4 | 16.1 | 0.00 | 0.00 | 0.00 | 79 | 1046.3 |
| 20260509161557 | 26 | 299 | 8.0 | 20.9 | 0.00 | 0.00 | 0.00 | 82 | 1046.4 |
| 20260509161057 | 26 | 251 | 8.0 | 16.1 | 0.00 | 0.00 | 0.00 | 82 | 1046.0 |
| 20260509160553 | 26 | 259 | 4.8 | 19.3 | 0.00 | 0.00 | 0.00 | 82 | 1045.9 |
| 20260509160048 | 25 | 246 | 11.3 | 19.3 | 0.00 | 0.00 | 0.00 | 85 | 1046.3 |
| 20260509155545 | 25 | 228 | 14.5 | 20.9 | 0.00 | 0.00 | 0.00 | 85 | 1046.3 |
| 20260509155041 | 25 | 222 | 9.7 | 22.5 | 0.00 | 0.00 | 0.00 | 85 | 1046.2 |
| 20260509154537 | 25 | 242 | 9.7 | 25.7 | 0.00 | 0.00 | 0.00 | 85 | 1045.8 |
| 20260509154035 | 25 | 203 | 17.7 | 27.4 | 0.00 | 0.00 | 0.00 | 83 | 1045.9 |
| 20260509153532 | 26 | 221 | 14.5 | 24.1 | 0.00 | 0.00 | 0.00 | 84 | 1045.9 |
| 20260509153029 | 26 | 202 | 9.7 | 17.7 | 0.00 | 0.00 | 0.00 | 83 | 1045.7 |
| 20260509152524 | 26 | 181 | 16.1 | 17.7 | 0.00 | 0.00 | 0.00 | 82 | 1045.7 |
| 20260509152022 | 26 | 193 | 9.7 | 17.7 | 0.00 | 0.00 | 0.00 | 81 | 1045.7 |
| 20260509151518 | 26 | 151 | 0.0 | 17.7 | 0.00 | 0.00 | 0.00 | 82 | 1045.6 |
| 20260509151016 | 26 | 199 | 14.5 | 20.9 | 0.00 | 0.00 | 0.00 | 82 | 1045.7 |
| 20260509150513 | 26 | 179 | 9.7 | 16.1 | 0.00 | 0.00 | 0.00 | 82 | 1045.3 |
| 20260509150012 | 26 | 191 | 8.0 | 14.5 | 0.00 | 0.00 | 0.00 | 82 | 1045.2 |
| 20260509145507 | 26 | 218 | 11.3 | 12.9 | 0.00 | 0.00 | 0.00 | 82 | 1045.4 |
| 20260509145002 | 26 | 204 | 8.0 | 11.3 | 0.00 | 0.00 | 0.00 | 80 | 1045.3 |
| 20260509144459 | 26 | 225 | 11.3 | 12.9 | 0.00 | 0.00 | 0.00 | 82 | 1045.7 |
| 20260509143956 | 26 | 202 | 11.3 | 17.7 | 0.00 | 0.00 | 0.00 | 82 | 1045.5 |
| 20260509143453 | 26 | 225 | 6.4 | 11.3 | 0.00 | 0.00 | 0.00 | 83 | 1045.5 |
| 20260509142950 | 25 | 205 | 4.8 | 16.1 | 0.00 | 0.00 | 0.00 | 83 | 1045.2 |
| 20260509142446 | 25 | 256 | 9.7 | 11.3 | 0.00 | 0.00 | 0.00 | 83 | 1045.1 |
| 20260509141942 | 25 | 186 | 6.4 | 12.9 | 0.00 | 0.00 | 0.00 | 84 | 1045.1 |
| 20260509141438 | 25 | 205 | 4.8 | 4.8 | 0.00 | 0.00 | 0.00 | 84 | 1045.1 |
| 20260509140935 | 26 | 75 | 0.0 | 8.0 | 0.00 | 0.00 | 0.00 | 83 | 1045.2 |
| 20260509140431 | 25 | 157 | 3.2 | 8.0 | 0.00 | 0.00 | 0.00 | 85 | 1044.9 |
| 20260509135930 | 25 | 163 | 9.7 | 11.3 | 0.00 | 0.00 | 0.00 | 86 | 1044.8 |
| 20260509135427 | 25 | 221 | 6.4 | 9.7 | 0.00 | 0.00 | 0.00 | 87 | 1044.8 |
| 20260509134924 | 24 | 166 | 4.8 | 16.1 | 0.00 | 0.00 | 0.00 | 88 | 1044.8 |
| 20260509134422 | 24 | 207 | 14.5 | 19.3 | 0.00 | 0.00 | 0.00 | 89 | 1044.7 |
| 20260509133919 | 23 | 199 | 11.3 | 20.9 | 0.00 | 0.00 | 0.00 | 91 | 1045.0 |
| 20260509133415 | 23 | 197 | 8.0 | 14.5 | 0.00 | 0.00 | 0.00 | 91 | 1044.8 |
| 20260509132914 | 23 | 236 | 9.7 | 12.9 | 0.00 | 0.00 | 0.00 | 92 | 1045.1 |
| 20260509132412 | 23 | 220 | 8.0 | 9.7 | 0.00 | 0.00 | 0.00 | 92 | 1045.0 |
| 20260509131908 | 23 | 208 | 6.4 | 19.3 | 0.00 | 0.00 | 0.00 | 93 | 1045.0 |
| 20260509131406 | 23 | 230 | 6.4 | 16.1 | 0.00 | 0.00 | 0.00 | 93 | 1045.2 |
| 20260509130902 | 22 | 184 | 6.4 | 14.5 | 0.00 | 0.00 | 0.00 | 95 | 1044.8 |
| 20260509130357 | 22 | 210 | 6.4 | 11.3 | 0.00 | 0.00 | 0.00 | 96 | 1045.1 |
| 20260509125855 | 22 | 150 | 6.4 | 8.0 | 0.00 | 0.00 | 0.00 | 96 | 1045.1 |
| 20260509125351 | 22 | 212 | 3.2 | 6.4 | 0.00 | 0.00 | 0.00 | 97 | 1045.2 |
| 20260509124847 | 21 | 228 | 3.2 | 3.2 | 0.00 | 0.00 | 0.00 | 97 | 1045.5 |
| 20260509124344 | 21 | 243 | 3.2 | 3.2 | 0.00 | 0.00 | 0.00 | 97 | 1045.5 |
| 20260509123842 | 21 | 345 | 3.2 | 6.4 | 0.00 | 0.00 | 0.00 | 97 | 1045.4 |
| 20260509123339 | 21 | 265 | 3.2 | 4.8 | 0.00 | 0.00 | 0.00 | 97 | 1045.4 |
| 20260509122835 | 21 | 273 | 4.8 | 11.3 | 0.00 | 0.00 | 0.00 | 97 | 1045.4 |
| 20260509122332 | 21 | 351 | 6.4 | 8.0 | 0.00 | 0.00 | 0.00 | 97 | 1045.5 |
| 20260509121829 | 21 | 352 | 3.2 | 6.4 | 0.00 | 0.00 | 0.00 | 97 | 1045.3 |
| 20260509121326 | 21 | 32 | 3.2 | 4.8 | 0.00 | 0.00 | 0.00 | 98 | 1045.3 |
| 20260509120824 | 21 | 342 | 0.0 | 6.4 | 0.00 | 0.00 | 0.00 | 98 | 1045.3 |
| 20260509120322 | 21 | 338 | 0.0 | 6.4 | 0.00 | 0.00 | 0.00 | 98 | 1045.4 |
| 20260509115820 | 21 | 350 | 4.8 | 4.8 | 0.00 | 0.00 | 0.00 | 98 | 1045.7 |
| 20260509115316 | 21 | 348 | 3.2 | 6.4 | 0.00 | 0.00 | 0.00 | 98 | 1045.8 |
| 20260509114814 | 21 | 352 | 0.0 | 3.2 | 0.00 | 0.00 | 0.00 | 98 | 1045.6 |
| 20260509114313 | 21 | 330 | 3.2 | 4.8 | 0.00 | 0.00 | 0.00 | 98 | 1045.8 |
| 20260509113812 | 21 | 120 | 1.6 | 3.2 | 0.00 | 0.00 | 0.00 | 98 | 1046.0 |
| 20260509113308 | 21 | 139 | 0.0 | 4.8 | 0.00 | 0.00 | 0.00 | 98 | 1046.0 |
| 20260509112805 | 21 | 170 | 4.8 | 8.0 | 0.00 | 0.00 | 0.00 | 98 | 1045.9 |
| 20260509112306 | 21 | 198 | 3.2 | 3.2 | 0.00 | 0.00 | 0.00 | 98 | 1046.2 |
| 20260509111759 | 21 | 172 | 3.2 | 3.2 | 0.00 | 0.00 | 0.00 | 98 | 1046.3 |
| 20260509111256 | 21 | 66 | 0.0 | 4.8 | 0.00 | 0.00 | 0.00 | 98 | 1046.3 |
| 20260509110753 | 21 | 69 | 0.0 | 3.2 | 0.00 | 0.00 | 0.00 | 98 | 1046.6 |
| 20260509110250 | 21 | 306 | 0.0 | 3.2 | 0.00 | 0.00 | 0.00 | 98 | 1046.7 |
| 20260509105748 | 21 | 320 | 4.8 | 4.8 | 0.00 | 0.00 | 0.00 | 98 | 1046.7 |
| 20260509105245 | 21 | 240 | 1.6 | 3.2 | 0.00 | 0.00 | 0.00 | 98 | 1046.7 |
| 20260509104741 | 21 | 21 | 3.2 | 6.4 | 0.00 | 0.00 | 0.00 | 98 | 1046.7 |
| 20260509104239 | 21 | 74 | 0.0 | 3.2 | 0.00 | 0.00 | 0.00 | 98 | 1046.8 |
| 20260509103737 | 21 | 0 | 0.0 | 6.4 | 0.00 | 0.00 | 0.00 | 98 | 1046.7 |
| 20260509103234 | 21 | 345 | 0.0 | 4.8 | 0.00 | 0.00 | 0.00 | 98 | 1046.7 |
| 20260509102732 | 21 | 11 | 3.2 | 6.4 | 0.00 | 0.00 | 0.00 | 98 | 1046.8 |
| 20260509102229 | 21 | 81 | 0.0 | 4.8 | 0.00 | 0.00 | 0.00 | 98 | 1046.5 |
| 20260509101725 | 21 | 8 | 0.0 | 3.2 | 0.00 | 0.00 | 0.00 | 98 | 1046.6 |
| 20260509101222 | 21 | 54 | 1.6 | 6.4 | 0.00 | 0.00 | 0.00 | 98 | 1046.5 |
| 20260509100719 | 21 | 339 | 3.2 | 6.4 | 0.00 | 0.00 | 0.00 | 98 | 1046.4 |
| 20260509100216 | 21 | 0 | 3.2 | 4.8 | 0.00 | 0.00 | 0.00 | 98 | 1046.0 |
| 20260509095713 | 21 | 0 | 0.0 | 3.2 | 0.00 | 0.00 | 0.00 | 98 | 1046.1 |
| 20260509095210 | 21 | 117 | 0.0 | 0.0 | 0.00 | 0.00 | 0.00 | 98 | 1045.9 |
| 20260509094707 | 21 | 23 | 1.6 | 1.6 | 0.00 | 0.00 | 0.00 | 98 | 1045.6 |
| 20260509094204 | 21 | 98 | 0.0 | 1.6 | 0.00 | 0.00 | 0.00 | 98 | 1045.4 |
| 20260509093702 | 21 | 103 | 0.0 | 3.2 | 0.00 | 0.00 | 0.00 | 98 | 1045.2 |
| 20260509093159 | 21 | 233 | 0.0 | 3.2 | 0.00 | 0.00 | 0.00 | 98 | 1045.2 |
| 20260509092657 | 21 | 151 | 4.8 | 4.8 | 0.00 | 0.00 | 0.00 | 98 | 1045.2 |
| 20260509092155 | 21 | 173 | 1.6 | 4.8 | 0.00 | 0.00 | 0.00 | 98 | 1045.1 |
| 20260509091653 | 21 | 147 | 3.2 | 4.8 | 0.00 | 0.00 | 0.00 | 98 | 1044.7 |
| 20260509091148 | 21 | 161 | 3.2 | 4.8 | 0.00 | 0.00 | 0.00 | 97 | 1044.8 |
| 20260509090647 | 21 | 171 | 3.2 | 6.4 | 0.00 | 0.00 | 0.00 | 97 | 1045.1 |
| 20260509090143 | 21 | 162 | 3.2 | 4.8 | 0.00 | 0.00 | 0.00 | 97 | 1044.8 |
| 20260509085641 | 21 | 131 | 0.0 | 3.2 | 0.00 | 0.00 | 0.00 | 97 | 1045.1 |
| 20260509085137 | 21 | 135 | 4.8 | 4.8 | 0.00 | 0.00 | 0.00 | 97 | 1045.0 |
| 20260509084634 | 21 | 90 | 0.0 | 3.2 | 0.00 | 0.00 | 0.00 | 97 | 1045.3 |
| 20260509084131 | 21 | 90 | 0.0 | 4.8 | 0.00 | 0.00 | 0.00 | 97 | 1045.2 |
| 20260509083629 | 21 | 96 | 0.0 | 3.2 | 0.00 | 0.00 | 0.00 | 97 | 1045.2 |
| 20260509083125 | 22 | 109 | 1.6 | 3.2 | 0.00 | 0.00 | 0.00 | 97 | 1045.5 |
| 20260509082623 | 22 | 117 | 1.6 | 4.8 | 0.00 | 0.00 | 0.00 | 97 | 1045.6 |
| 20260509082119 | 22 | 106 | 1.6 | 4.8 | 0.00 | 0.00 | 0.00 | 96 | 1045.7 |
| 20260509081616 | 22 | 172 | 0.0 | 3.2 | 0.00 | 0.00 | 0.00 | 96 | 1045.3 |
| 20260509081113 | 22 | 180 | 0.0 | 3.2 | 0.00 | 0.00 | 0.00 | 96 | 1045.6 |
| 20260509080612 | 22 | 139 | 0.0 | 0.0 | 0.00 | 0.00 | 0.00 | 96 | 1045.4 |
| 20260509080109 | 22 | 132 | 3.2 | 8.0 | 0.00 | 0.00 | 0.00 | 96 | 1045.6 |
| 20260509075607 | 22 | 90 | 4.8 | 6.4 | 0.00 | 0.00 | 0.00 | 95 | 1045.8 |
| 20260509075104 | 22 | 132 | 3.2 | 4.8 | 0.00 | 0.00 | 0.00 | 95 | 1045.6 |
| 20260509074601 | 22 | 143 | 4.8 | 6.4 | 0.00 | 0.00 | 0.00 | 95 | 1045.8 |
| 20260509074057 | 22 | 108 | 4.8 | 6.4 | 0.00 | 0.00 | 0.00 | 94 | 1045.5 |
| 20260509073554 | 22 | 173 | 0.0 | 3.2 | 0.00 | 0.00 | 0.00 | 94 | 1045.5 |
| 20260509073050 | 22 | 161 | 3.2 | 4.8 | 0.00 | 0.00 | 0.00 | 94 | 1045.9 |
| 20260509072547 | 22 | 166 | 1.6 | 4.8 | 0.00 | 0.00 | 0.00 | 94 | 1045.8 |
| 20260509072044 | 22 | 174 | 1.6 | 1.6 | 0.00 | 0.00 | 0.00 | 94 | 1045.8 |
| 20260509071541 | 22 | 286 | 0.0 | 3.2 | 0.00 | 0.00 | 0.00 | 94 | 1045.5 |
| 20260509071038 | 22 | 246 | 0.0 | 3.2 | 0.00 | 0.00 | 0.00 | 94 | 1045.7 |
| 20260509070536 | 22 | 238 | 4.8 | 4.8 | 0.00 | 0.00 | 0.00 | 94 | 1046.0 |
| 20260509070032 | 22 | 225 | 3.2 | 4.8 | 0.00 | 0.00 | 0.00 | 94 | 1045.7 |
| 20260509065527 | 22 | 246 | 4.8 | 4.8 | 0.00 | 0.00 | 0.00 | 93 | 1045.9 |
| 20260509065024 | 22 | 215 | 0.0 | 3.2 | 0.00 | 0.00 | 0.00 | 93 | 1045.8 |
| 20260509064521 | 22 | 120 | 3.2 | 3.2 | 0.00 | 0.00 | 0.00 | 93 | 1045.6 |
| 20260509064019 | 22 | 147 | 4.8 | 9.7 | 0.00 | 0.00 | 0.00 | 93 | 1045.8 |
| 20260509063514 | 22 | 198 | 6.4 | 9.7 | 0.00 | 0.00 | 0.00 | 93 | 1045.7 |
| 20260509063012 | 22 | 185 | 8.0 | 8.0 | 0.00 | 0.00 | 0.00 | 93 | 1045.7 |
| 20260509062509 | 22 | 206 | 3.2 | 6.4 | 0.00 | 0.00 | 0.00 | 93 | 1045.7 |
| 20260509062007 | 22 | 176 | 3.2 | 4.8 | 0.00 | 0.00 | 0.00 | 93 | 1045.7 |
| 20260509061504 | 22 | 215 | 1.6 | 8.0 | 0.00 | 0.00 | 0.00 | 93 | 1045.7 |
| 20260509061001 | 22 | 144 | 6.4 | 6.4 | 0.00 | 0.00 | 0.00 | 93 | 1045.5 |
| 20260509060458 | 22 | 130 | 4.8 | 6.4 | 0.00 | 0.00 | 0.00 | 93 | 1045.3 |
| 20260509055953 | 22 | 162 | 9.7 | 14.5 | 0.00 | 0.00 | 0.00 | 92 | 1045.1 |
| 20260509055449 | 22 | 210 | 3.2 | 11.3 | 0.00 | 0.00 | 0.00 | 92 | 1045.0 |
| 20260509054945 | 22 | 132 | 6.4 | 22.5 | 0.00 | 0.00 | 0.00 | 92 | 1045.5 |
| 20260509054442 | 22 | 225 | 4.8 | 16.1 | 0.00 | 0.00 | 0.00 | 92 | 1045.4 |
| 20260509053940 | 22 | 190 | 3.2 | 9.7 | 0.00 | 0.00 | 0.00 | 93 | 1045.1 |
| 20260509053438 | 22 | 195 | 3.2 | 6.4 | 0.00 | 0.00 | 0.00 | 93 | 1044.6 |
| 20260509052935 | 22 | 195 | 3.2 | 8.0 | 0.00 | 0.00 | 0.00 | 93 | 1044.4 |
| 20260509052433 | 22 | 129 | 9.7 | 9.7 | 0.00 | 0.00 | 0.00 | 93 | 1044.3 |
| 20260509051931 | 22 | 156 | 8.0 | 12.9 | 0.00 | 0.00 | 0.00 | 93 | 1044.0 |
| 20260509051428 | 22 | 191 | 3.2 | 14.5 | 0.00 | 0.00 | 0.00 | 93 | 1044.0 |
| 20260509050925 | 22 | 166 | 4.8 | 8.0 | 0.00 | 0.00 | 0.00 | 93 | 1044.0 |
| 20260509050421 | 22 | 147 | 3.2 | 8.0 | 0.00 | 0.00 | 0.00 | 93 | 1044.3 |
| 20260509045918 | 22 | 147 | 4.8 | 8.0 | 0.00 | 0.00 | 0.00 | 92 | 1044.0 |
| 20260509045415 | 22 | 146 | 6.4 | 9.7 | 0.00 | 0.00 | 0.00 | 92 | 1044.2 |
| 20260509044912 | 22 | 178 | 6.4 | 12.9 | 0.00 | 0.00 | 0.00 | 92 | 1044.0 |
| 20260509044410 | 22 | 189 | 6.4 | 9.7 | 0.00 | 0.00 | 0.00 | 92 | 1044.1 |
| 20260509043907 | 22 | 171 | 3.2 | 9.7 | 0.00 | 0.00 | 0.00 | 92 | 1044.3 |
| 20260509043402 | 22 | 174 | 1.6 | 6.4 | 0.00 | 0.00 | 0.00 | 92 | 1044.6 |
| 20260509042858 | 22 | 188 | 3.2 | 6.4 | 0.00 | 0.00 | 0.00 | 92 | 1044.6 |
| 20260509042355 | 22 | 133 | 4.8 | 4.8 | 0.00 | 0.00 | 0.00 | 92 | 1044.7 |
| 20260509041852 | 22 | 162 | 4.8 | 6.4 | 0.00 | 0.00 | 0.00 | 92 | 1044.9 |
| 20260509041349 | 22 | 159 | 4.8 | 6.4 | 0.00 | 0.00 | 0.00 | 91 | 1045.0 |
| 20260509040847 | 22 | 156 | 3.2 | 4.8 | 0.00 | 0.00 | 0.00 | 91 | 1045.0 |
| 20260509040345 | 22 | 148 | 4.8 | 4.8 | 0.00 | 0.00 | 0.00 | 91 | 1044.8 |
| 20260509035841 | 22 | 170 | 3.2 | 6.4 | 0.00 | 0.00 | 0.00 | 91 | 1044.9 |
| 20260509035338 | 22 | 172 | 0.0 | 6.4 | 0.00 | 0.00 | 0.00 | 91 | 1044.8 |
| 20260509034834 | 22 | 165 | 3.2 | 6.4 | 0.00 | 0.00 | 0.00 | 91 | 1044.8 |
| 20260509034332 | 22 | 105 | 4.8 | 8.0 | 0.00 | 0.00 | 0.00 | 91 | 1044.8 |
| 20260509033829 | 22 | 186 | 6.4 | 6.4 | 0.00 | 0.00 | 0.00 | 91 | 1044.6 |
| 20260509033326 | 22 | 165 | 6.4 | 8.0 | 0.00 | 0.00 | 0.00 | 91 | 1044.7 |
| 20260509032823 | 22 | 203 | 4.8 | 12.9 | 0.00 | 0.00 | 0.00 | 91 | 1044.6 |
| 20260509032320 | 22 | 162 | 8.0 | 11.3 | 0.00 | 0.00 | 0.00 | 91 | 1044.3 |
| 20260509031818 | 22 | 170 | 8.0 | 11.3 | 0.00 | 0.00 | 0.00 | 91 | 1044.4 |
| 20260509031315 | 22 | 174 | 4.8 | 8.0 | 0.00 | 0.00 | 0.00 | 91 | 1044.3 |
| 20260509030813 | 22 | 171 | 6.4 | 8.0 | 0.00 | 0.00 | 0.00 | 91 | 1044.3 |
| 20260509030310 | 22 | 191 | 6.4 | 9.7 | 0.00 | 0.00 | 0.00 | 90 | 1044.3 |
| 20260509025807 | 22 | 196 | 6.4 | 6.4 | 0.00 | 0.00 | 0.00 | 90 | 1044.3 |
| 20260509025306 | 22 | 200 | 8.0 | 8.0 | 0.00 | 0.00 | 0.00 | 90 | 1044.3 |
| 20260509024758 | 22 | 150 | 4.8 | 8.0 | 0.00 | 0.00 | 0.00 | 89 | 1044.2 |
| 20260509024255 | 23 | 139 | 3.2 | 11.3 | 0.00 | 0.00 | 0.00 | 89 | 1044.2 |
| 20260509023752 | 23 | 122 | 0.0 | 17.7 | 0.00 | 0.00 | 0.00 | 89 | 1044.1 |
| 20260509023249 | 23 | 171 | 3.2 | 11.3 | 0.00 | 0.00 | 0.00 | 89 | 1044.2 |
| 20260509022745 | 23 | 175 | 1.6 | 8.0 | 0.00 | 0.00 | 0.00 | 88 | 1044.2 |
| 20260509022243 | 23 | 143 | 9.7 | 9.7 | 0.00 | 0.00 | 0.00 | 89 | 1044.2 |
| 20260509021739 | 23 | 227 | 4.8 | 11.3 | 0.00 | 0.00 | 0.00 | 88 | 1043.9 |
| 20260509021236 | 23 | 146 | 6.4 | 9.7 | 0.00 | 0.00 | 0.00 | 88 | 1043.9 |
| 20260509020734 | 23 | 140 | 8.0 | 11.3 | 0.00 | 0.00 | 0.00 | 88 | 1043.9 |
| 20260509020232 | 23 | 167 | 6.4 | 17.7 | 0.00 | 0.00 | 0.00 | 88 | 1043.7 |
| 20260509015729 | 23 | 165 | 1.6 | 14.5 | 0.00 | 0.00 | 0.00 | 87 | 1043.6 |
| 20260509015228 | 23 | 165 | 6.4 | 12.9 | 0.00 | 0.00 | 0.00 | 87 | 1043.4 |
| 20260509014724 | 23 | 152 | 3.2 | 8.0 | 0.00 | 0.00 | 0.00 | 87 | 1043.6 |
| 20260509014221 | 23 | 133 | 4.8 | 11.3 | 0.00 | 0.00 | 0.00 | 86 | 1043.5 |
| 20260509013718 | 23 | 134 | 8.0 | 11.3 | 0.00 | 0.00 | 0.00 | 86 | 1043.7 |
| 20260509013213 | 24 | 148 | 4.8 | 11.3 | 0.00 | 0.00 | 0.00 | 85 | 1043.4 |
| 20260509012710 | 24 | 146 | 8.0 | 9.7 | 0.00 | 0.00 | 0.00 | 85 | 1043.4 |
| 20260509012206 | 24 | 157 | 3.2 | 11.3 | 0.00 | 0.00 | 0.00 | 84 | 1043.3 |
| 20260509011704 | 24 | 180 | 4.8 | 14.5 | 0.00 | 0.00 | 0.00 | 83 | 1043.1 |
| 20260509011202 | 25 | 164 | 3.2 | 17.7 | 0.00 | 0.00 | 0.00 | 83 | 1043.5 |
| 20260509010659 | 25 | 159 | 4.8 | 14.5 | 0.00 | 0.00 | 0.00 | 82 | 1043.5 |
| 20260509010155 | 25 | 175 | 8.0 | 11.3 | 0.00 | 0.00 | 0.00 | 82 | 1043.4 |
| 20260509005653 | 25 | 159 | 9.7 | 14.5 | 0.00 | 0.00 | 0.00 | 82 | 1043.3 |
| 20260509005150 | 25 | 186 | 4.8 | 9.7 | 0.00 | 0.00 | 0.00 | 82 | 1043.3 |
| 20260509004645 | 25 | 142 | 8.0 | 17.7 | 0.00 | 0.00 | 0.00 | 82 | 1043.4 |
| 20260509004142 | 25 | 151 | 6.4 | 14.5 | 0.00 | 0.00 | 0.00 | 82 | 1043.3 |
| 20260509003641 | 25 | 206 | 6.4 | 12.9 | 0.00 | 0.00 | 0.00 | 82 | 1043.4 |
| 20260509003138 | 25 | 137 | 6.4 | 14.5 | 0.00 | 0.00 | 0.00 | 82 | 1043.4 |
| 20260509002635 | 25 | 148 | 3.2 | 9.7 | 0.00 | 0.00 | 0.00 | 82 | 1043.5 |
| 20260509002132 | 25 | 138 | 8.0 | 14.5 | 0.00 | 0.00 | 0.00 | 81 | 1043.5 |
| 20260509001630 | 25 | 173 | 3.2 | 8.0 | 0.00 | 0.00 | 0.00 | 81 | 1043.4 |
| 20260509001125 | 25 | 143 | 4.8 | 8.0 | 0.00 | 0.00 | 0.00 | 81 | 1043.4 |
| 20260509000624 | 25 | 134 | 8.0 | 9.7 | 0.00 | 0.00 | 0.00 | 81 | 1043.3 |
| 20260509000120 | 25 | 162 | 1.6 | 9.7 | 0.00 | 0.00 | 0.00 | 81 | 1043.5 |
| 20260508235617 | 25 | 145 | 8.0 | 11.3 | 0.00 | 0.00 | 0.00 | 81 | 1043.5 |
| 20260508235114 | 25 | 108 | 4.8 | 8.0 | 0.00 | 0.00 | 0.00 | 81 | 1043.3 |